createdAt,value
2023-04-22T00:01:35.083Z,62.60
2023-04-22T00:04:03.195Z,62.80
2023-04-22T00:06:32.332Z,62.70
2023-04-22T00:09:00.004Z,62.50
2023-04-22T00:11:28.351Z,61.60
2023-04-22T00:13:55.932Z,62.00
2023-04-22T00:16:23.765Z,61.10
2023-04-22T00:18:51.394Z,61.10
2023-04-22T00:21:19.779Z,62.00
2023-04-22T00:23:47.750Z,61.70
2023-04-22T00:26:16.332Z,61.40
2023-04-22T00:28:59.677Z,61.10
2023-04-22T00:31:36.470Z,61.20
2023-04-22T00:34:04.305Z,62.00
2023-04-22T00:36:32.206Z,63.00
2023-04-22T00:38:59.857Z,62.90
2023-04-22T00:41:29.164Z,62.30
2023-04-22T00:43:57.064Z,61.80
2023-04-22T00:46:26.263Z,61.50
2023-04-22T00:48:55.219Z,61.40
2023-04-22T00:51:23.282Z,61.30
2023-04-22T00:53:50.959Z,61.50
2023-04-22T00:56:19.421Z,61.30
2023-04-22T00:58:46.985Z,61.00
2023-04-22T01:01:20.029Z,61.50
2023-04-22T01:03:48.907Z,60.80
2023-04-22T01:06:46.886Z,60.50
2023-04-22T01:09:15.689Z,60.70
2023-04-22T01:11:43.314Z,60.70
2023-04-22T01:14:10.973Z,60.50
2023-04-22T01:23:38.147Z,59.80
2023-04-22T01:26:06.735Z,59.60
2023-04-22T01:28:34.448Z,59.70
2023-04-22T01:31:03.105Z,59.50
2023-04-22T01:33:32.184Z,59.40
2023-04-22T01:36:00.644Z,59.30
2023-04-22T01:38:29.165Z,59.80
2023-04-22T01:40:57.708Z,59.20
2023-04-22T01:43:25.670Z,59.10
2023-04-22T01:45:54.080Z,59.00
2023-04-22T01:48:22.135Z,59.10
2023-04-22T01:50:52.713Z,59.10
2023-04-22T01:53:20.760Z,58.90
2023-04-22T01:55:50.360Z,58.80
2023-04-22T01:58:18.281Z,58.50
2023-04-22T02:00:48.600Z,58.00
2023-04-22T02:03:28.772Z,58.30
2023-04-22T02:06:33.102Z,58.10
2023-04-22T02:09:07.396Z,57.80
2023-04-22T02:11:35.043Z,57.90
2023-04-22T02:14:02.723Z,57.40
2023-04-22T02:16:31.288Z,57.30
2023-04-22T02:18:58.995Z,57.20
2023-04-22T02:21:30.945Z,57.10
2023-04-22T02:23:58.283Z,57.10
2023-04-22T02:26:28.752Z,56.30
2023-04-22T02:28:57.904Z,56.90
2023-04-22T02:37:30.446Z,56.20
2023-04-22T02:40:05.382Z,56.50
2023-04-22T02:42:34.024Z,56.40
2023-04-22T02:45:01.687Z,55.60
2023-04-22T02:47:32.228Z,56.40
2023-04-22T02:49:59.853Z,55.80
2023-04-22T02:52:27.654Z,56.10
2023-04-22T02:55:40.885Z,55.90
2023-04-22T02:58:09.248Z,56.00
2023-04-22T03:00:36.988Z,55.80
2023-04-22T03:03:05.139Z,54.80
2023-04-22T03:05:35.985Z,55.20
2023-04-22T03:08:03.628Z,55.80
2023-04-22T03:10:32.853Z,53.90
2023-04-22T03:13:02.645Z,54.40
2023-04-22T03:15:33.162Z,54.90
2023-04-22T03:18:00.985Z,54.50
2023-04-22T03:20:29.068Z,53.90
2023-04-22T03:22:59.205Z,54.70
2023-04-22T03:25:26.938Z,54.20
2023-04-22T03:27:54.865Z,54.10
2023-04-22T03:30:22.639Z,54.30
2023-04-22T03:32:51.057Z,55.10
2023-04-22T03:35:18.894Z,54.90
2023-04-22T03:37:46.630Z,54.50
2023-04-22T03:40:14.338Z,54.30
2023-04-22T03:42:42.041Z,54.70
2023-04-22T03:45:09.875Z,54.50
2023-04-22T03:47:37.483Z,54.40
2023-04-22T03:50:06.360Z,54.30
2023-04-22T03:52:34.831Z,54.00
2023-04-22T03:55:02.780Z,54.50
2023-04-22T03:57:30.738Z,54.10
2023-04-22T03:59:58.383Z,54.50
2023-04-22T04:02:27.616Z,54.30
2023-04-22T04:04:55.782Z,54.00
2023-04-22T04:07:23.776Z,53.40
2023-04-22T04:09:51.445Z,54.00
2023-04-22T04:12:19.307Z,53.40
2023-04-22T04:14:48.717Z,52.20
2023-04-22T04:17:16.996Z,52.30
2023-04-22T04:19:44.906Z,52.50
2023-04-22T04:22:12.585Z,51.80
2023-04-22T04:25:01.774Z,53.40
2023-04-22T04:27:29.857Z,52.60
2023-04-22T04:29:57.667Z,50.80
2023-04-22T04:32:27.542Z,51.80
2023-04-22T04:34:58.388Z,51.90
2023-04-22T04:37:26.624Z,52.20
2023-04-22T04:39:54.292Z,52.40
2023-04-22T04:42:24.667Z,51.90
2023-04-22T04:44:54.246Z,52.80
2023-04-22T04:47:22.886Z,52.70
2023-04-22T04:49:53.512Z,53.00
2023-04-22T04:52:21.965Z,52.90
2023-04-22T04:55:00.097Z,51.70
2023-04-22T04:57:28.103Z,52.80
2023-04-22T04:59:55.912Z,51.20
2023-04-22T05:02:23.812Z,52.70
2023-04-22T05:04:54.226Z,51.70
2023-04-22T05:07:28.394Z,51.90
2023-04-22T05:09:56.323Z,50.60
2023-04-22T05:13:12.992Z,49.60
2023-04-22T05:16:16.474Z,50.10
2023-04-22T05:18:58.434Z,51.10
2023-04-22T05:21:26.480Z,50.20
2023-04-22T05:23:54.912Z,50.90
2023-04-22T05:26:22.961Z,51.50
2023-04-22T05:28:56.278Z,50.70
2023-04-22T05:31:27.428Z,50.80
2023-04-22T05:33:55.308Z,50.90
2023-04-22T05:36:24.017Z,50.00
2023-04-22T05:38:52.326Z,50.70
2023-04-22T05:41:22.833Z,49.70
2023-04-22T05:44:04.163Z,51.00
2023-04-22T05:46:37.810Z,51.00
2023-04-22T05:49:06.108Z,50.80
2023-04-22T05:51:33.768Z,51.10
2023-04-22T05:54:01.551Z,50.40
2023-04-22T05:56:30.542Z,49.90
2023-04-22T06:02:57.326Z,50.60
2023-04-22T06:05:26.267Z,50.10
2023-04-22T06:07:54.034Z,50.20
2023-04-22T06:10:21.734Z,50.20
2023-04-22T06:18:41.774Z,49.80
2023-04-22T06:21:09.326Z,48.80
2023-04-22T06:23:40.078Z,50.40
2023-04-22T06:26:07.675Z,49.10
2023-04-22T06:28:35.314Z,49.20
2023-04-22T06:33:30.293Z,50.10
2023-04-22T06:35:58.213Z,49.40
2023-04-22T06:40:53.260Z,49.50
2023-04-22T06:43:20.811Z,48.80
2023-04-22T06:45:48.432Z,48.80
2023-04-22T06:48:25.257Z,49.90
2023-04-22T06:50:54.280Z,47.90
2023-04-22T06:53:49.455Z,48.40
2023-04-22T06:56:24.842Z,49.70
2023-04-22T06:58:52.978Z,49.40
2023-04-22T07:01:20.603Z,48.70
2023-04-22T07:03:48.487Z,48.50
2023-04-22T07:06:16.574Z,48.90
2023-04-22T07:08:44.205Z,49.90
2023-04-22T07:11:14.268Z,49.40
2023-04-22T07:13:42.142Z,48.20
2023-04-22T07:16:09.771Z,48.10
2023-04-22T07:18:50.029Z,50.00
2023-04-22T07:21:17.846Z,49.50
2023-04-22T07:23:45.593Z,48.50
2023-04-22T07:26:13.516Z,49.00
2023-04-22T07:28:41.131Z,49.30
2023-04-22T07:31:08.864Z,48.70
2023-04-22T07:33:36.558Z,48.40
2023-04-22T07:36:04.645Z,46.90
2023-04-22T07:38:32.197Z,47.60
2023-04-22T07:40:59.826Z,47.50
2023-04-22T07:43:27.487Z,48.60
2023-04-22T07:45:55.386Z,48.00
2023-04-22T07:48:31.273Z,48.70
2023-04-22T07:51:01.846Z,49.60
2023-04-22T07:53:29.535Z,48.80
2023-04-22T07:56:01.646Z,48.70
2023-04-22T07:58:29.743Z,48.70
2023-04-22T08:00:57.338Z,48.90
2023-04-22T08:03:31.243Z,47.70
2023-04-22T08:06:03.631Z,46.50
2023-04-22T08:08:32.166Z,46.90
2023-04-22T08:16:03.448Z,47.30
2023-04-22T08:18:31.184Z,48.20
2023-04-22T08:20:59.181Z,45.80
2023-04-22T08:23:26.714Z,47.40
2023-04-22T08:25:54.308Z,48.50
2023-04-22T08:28:26.950Z,47.40
2023-04-22T08:30:56.029Z,47.50
2023-04-22T08:33:25.269Z,47.30
2023-04-22T08:38:30.371Z,46.90
2023-04-22T08:43:41.484Z,47.10
2023-04-22T08:48:49.140Z,47.70
2023-04-22T08:51:31.555Z,48.20
2023-04-22T08:54:15.543Z,46.80
2023-04-22T08:56:46.298Z,47.00
2023-04-22T08:59:16.949Z,46.40
2023-04-22T09:01:45.488Z,47.30
2023-04-22T09:04:15.285Z,46.80
2023-04-22T09:06:42.975Z,47.10
2023-04-22T09:09:19.256Z,47.70
2023-04-22T09:11:46.902Z,46.90
2023-04-22T09:14:16.290Z,47.30
2023-04-22T09:16:47.801Z,48.30
2023-04-22T09:19:16.089Z,47.70
2023-04-22T09:21:45.159Z,48.80
2023-04-22T09:24:16.334Z,48.70
2023-04-22T09:26:44.014Z,47.10
2023-04-22T09:29:15.153Z,47.60
2023-04-22T09:31:43.209Z,48.40
2023-04-22T09:34:10.987Z,48.20
2023-04-22T09:36:38.944Z,48.50
2023-04-22T09:39:09.761Z,48.20
2023-04-22T09:41:59.802Z,46.30
2023-04-22T09:44:32.174Z,47.70
2023-04-22T09:47:02.824Z,47.30
2023-04-22T09:49:30.718Z,47.40
2023-04-22T09:51:58.733Z,47.70
2023-04-22T09:54:30.156Z,47.10
2023-04-22T09:57:13.263Z,48.00
2023-04-22T10:03:02.397Z,47.70
2023-04-22T10:05:31.489Z,48.30
2023-04-22T10:07:59.353Z,48.80
2023-04-22T10:10:27.167Z,48.40
2023-04-22T10:12:55.065Z,48.50
2023-04-22T10:15:26.308Z,48.60
2023-04-22T10:17:55.692Z,48.30
2023-04-22T10:20:23.760Z,49.10
2023-04-22T10:22:52.876Z,48.70
2023-04-22T10:25:30.452Z,48.60
2023-04-22T10:28:08.820Z,48.60
2023-04-22T10:30:39.697Z,49.00
2023-04-22T10:33:27.844Z,49.10
2023-04-22T10:36:15.618Z,48.10
2023-04-22T10:38:55.752Z,48.20
2023-04-22T10:41:27.095Z,47.90
2023-04-22T10:43:59.070Z,48.70
2023-04-22T10:46:37.903Z,49.00
2023-04-22T10:49:18.500Z,49.20
2023-04-22T10:51:46.981Z,49.60
2023-04-22T10:54:31.852Z,48.90
2023-04-22T10:57:02.312Z,48.90
2023-04-22T10:59:31.135Z,48.70
2023-04-22T11:02:03.788Z,48.90
2023-04-22T11:04:32.927Z,49.00
2023-04-22T11:07:20.916Z,49.00
2023-04-22T11:09:52.054Z,49.00
2023-04-22T11:12:42.242Z,48.90
2023-04-22T11:15:14.907Z,48.90
2023-04-22T11:17:46.380Z,49.10
2023-04-22T11:20:17.688Z,49.20
2023-04-22T11:22:47.174Z,49.20
2023-04-22T11:25:15.004Z,49.30
2023-04-22T11:27:47.328Z,49.40
2023-04-22T11:30:16.385Z,49.80
2023-04-22T11:32:43.982Z,49.50
2023-04-22T11:35:13.245Z,49.50
2023-04-22T11:37:47.471Z,49.60
2023-04-22T11:40:28.247Z,49.60
2023-04-22T11:42:58.906Z,49.70
2023-04-22T11:45:26.998Z,49.80
2023-04-22T11:47:55.495Z,49.80
2023-04-22T11:50:24.570Z,49.90
2023-04-22T11:52:52.185Z,49.90
2023-04-22T11:55:30.480Z,50.10
2023-04-22T11:58:02.224Z,50.10
2023-04-22T12:00:32.042Z,50.20
2023-04-22T12:03:01.472Z,50.10
2023-04-22T12:05:36.437Z,50.10
2023-04-22T12:08:10.005Z,50.30
2023-04-22T12:10:45.057Z,50.40
2023-04-22T12:13:22.779Z,50.50
2023-04-22T12:15:54.583Z,50.50
2023-04-22T12:18:43.226Z,50.60
2023-04-22T12:21:12.890Z,50.60
2023-04-22T12:23:48.491Z,50.60
2023-04-22T12:26:17.160Z,50.70
2023-04-22T12:28:45.598Z,50.80
2023-04-22T12:31:14.128Z,50.80
2023-04-22T12:33:42.296Z,51.00
2023-04-22T12:36:10.173Z,51.00
2023-04-22T12:38:38.668Z,51.00
2023-04-22T12:41:07.248Z,51.10
2023-04-22T12:43:37.799Z,51.20
2023-04-22T12:46:07.974Z,51.40
2023-04-22T12:48:39.857Z,51.40
2023-04-22T12:51:07.587Z,51.40
2023-04-22T12:53:35.406Z,51.30
2023-04-22T12:56:03.002Z,51.40
2023-04-22T12:58:30.933Z,51.40
2023-04-22T13:00:58.525Z,51.50
2023-04-22T13:03:26.352Z,51.60
2023-04-22T13:05:54.986Z,51.60
2023-04-22T13:08:22.707Z,51.70
2023-04-22T13:10:50.544Z,51.70
2023-04-22T13:13:19.378Z,51.90
2023-04-22T13:15:50.415Z,51.90
2023-04-22T13:18:18.267Z,52.00
2023-04-22T13:20:48.039Z,51.90
2023-04-22T13:23:27.449Z,52.10
2023-04-22T13:25:55.180Z,52.10
2023-04-22T13:28:22.793Z,52.20
2023-04-22T13:30:50.394Z,52.20
2023-04-22T13:33:18.291Z,52.30
2023-04-22T13:35:46.662Z,52.40
2023-04-22T13:38:14.243Z,52.40
2023-04-22T13:40:42.060Z,52.70
2023-04-22T13:46:43.111Z,52.30
2023-04-22T13:49:11.101Z,51.70
2023-04-22T13:51:38.938Z,52.20
2023-04-22T13:54:06.690Z,53.00
2023-04-22T13:56:34.461Z,55.60
2023-04-22T13:59:03.110Z,52.40
2023-04-22T14:01:30.818Z,48.00
2023-04-22T14:04:00.760Z,52.70
2023-04-22T14:06:28.411Z,53.10
2023-04-22T14:08:57.621Z,53.70
2023-04-22T14:11:25.325Z,54.60
2023-04-22T14:13:53.701Z,55.50
2023-04-22T14:16:22.300Z,58.20
2023-04-22T14:18:50.108Z,57.00
2023-04-22T14:21:17.740Z,61.70
2023-04-22T14:23:45.438Z,61.50
2023-04-22T14:26:13.491Z,62.80
2023-04-22T14:28:41.879Z,59.30
2023-04-22T14:31:09.685Z,58.30
2023-04-22T14:33:37.259Z,59.60
2023-04-22T14:36:05.920Z,64.80
2023-04-22T14:38:33.788Z,62.10
2023-04-22T14:41:01.477Z,62.00
2023-04-22T14:43:32.090Z,62.70
2023-04-22T14:46:01.231Z,64.20
2023-04-22T14:48:31.194Z,64.70
2023-04-22T14:51:00.150Z,64.20
2023-04-22T14:53:28.146Z,65.60
2023-04-22T14:55:56.869Z,65.30
2023-04-22T14:58:24.640Z,65.20
2023-04-22T15:00:54.454Z,66.40
2023-04-22T15:03:23.140Z,67.80
2023-04-22T15:05:52.790Z,67.00
2023-04-22T15:08:20.421Z,67.00
2023-04-22T15:10:48.055Z,66.70
2023-04-22T15:13:15.876Z,66.00
2023-04-22T15:15:44.388Z,69.40
2023-04-22T15:18:13.029Z,68.60
2023-04-22T15:20:40.829Z,67.80
2023-04-22T15:23:08.413Z,70.60
2023-04-22T15:25:36.008Z,67.60
2023-04-22T15:28:04.467Z,71.10
2023-04-22T15:30:35.306Z,66.60
2023-04-22T15:33:05.905Z,72.80
2023-04-22T15:35:34.852Z,73.40
2023-04-22T15:38:03.217Z,72.90
2023-04-22T15:40:30.910Z,72.80
2023-04-22T15:42:58.430Z,71.30
2023-04-22T15:45:26.042Z,69.60
2023-04-22T15:47:54.160Z,68.50
2023-04-22T15:50:23.607Z,72.40
2023-04-22T15:52:51.306Z,69.40
2023-04-22T15:55:18.894Z,69.40
2023-04-22T15:57:46.516Z,69.00
2023-04-22T16:00:14.449Z,70.80
2023-04-22T16:02:43.531Z,69.90
2023-04-22T16:05:14.920Z,74.00
2023-04-22T16:07:43.497Z,73.60
2023-04-22T16:10:11.277Z,73.20
2023-04-22T16:12:38.944Z,73.40
2023-04-22T16:15:07.490Z,72.40
2023-04-22T16:17:35.897Z,71.70
2023-04-22T16:20:06.215Z,71.50
2023-04-22T16:22:34.026Z,72.80
2023-04-22T16:25:01.583Z,71.90
2023-04-22T16:27:29.590Z,74.00
2023-04-22T16:29:57.128Z,73.40
2023-04-22T16:32:25.040Z,73.20
2023-04-22T16:34:52.721Z,72.70
2023-04-22T16:37:20.620Z,72.30
2023-04-22T16:39:48.974Z,72.60
2023-04-22T16:42:16.596Z,72.90
2023-04-22T16:44:44.333Z,74.00
2023-04-22T16:47:11.888Z,74.90
2023-04-22T16:49:39.811Z,73.70
2023-04-22T16:52:10.299Z,71.60
2023-04-22T16:54:37.935Z,72.30
2023-04-22T16:57:07.559Z,71.30
2023-04-22T16:59:35.379Z,70.90
2023-04-22T17:02:03.251Z,71.70
2023-04-22T17:04:31.122Z,70.60
2023-04-22T17:06:59.884Z,70.50
2023-04-22T17:09:27.429Z,72.20
2023-04-22T17:11:55.886Z,72.50
2023-04-22T17:14:23.480Z,70.90
2023-04-22T17:16:51.362Z,71.80
2023-04-22T17:19:18.922Z,71.60
2023-04-22T17:21:46.517Z,70.90
2023-04-22T17:24:14.134Z,72.80
2023-04-22T17:26:41.651Z,70.10
2023-04-22T17:29:09.187Z,71.50
2023-04-22T17:31:36.792Z,71.80
2023-04-22T17:34:05.331Z,71.30
2023-04-22T17:36:33.093Z,71.50
2023-04-22T17:39:00.704Z,71.50
2023-04-22T17:41:28.274Z,72.10
2023-04-22T17:43:57.281Z,71.70
2023-04-22T17:46:26.134Z,71.80
2023-04-22T17:48:53.693Z,70.00
2023-04-22T17:51:21.252Z,70.40
2023-04-22T17:53:48.855Z,71.70
2023-04-22T17:56:16.406Z,70.60
2023-04-22T17:58:43.966Z,70.30
2023-04-22T18:01:11.651Z,70.70
2023-04-22T18:03:39.309Z,72.10
2023-04-22T18:06:08.905Z,71.70
2023-04-22T18:08:36.523Z,71.30
2023-04-22T18:11:06.066Z,72.30
2023-04-22T18:13:35.072Z,71.70
2023-04-22T18:16:02.615Z,71.70
2023-04-22T18:18:30.983Z,69.50
2023-04-22T18:20:58.823Z,70.70
2023-04-22T18:23:26.415Z,70.70
2023-04-22T18:25:54.904Z,72.00
2023-04-22T18:28:22.420Z,73.10
2023-04-22T18:30:49.956Z,72.80
2023-04-22T18:33:17.532Z,72.80
2023-04-22T18:35:45.157Z,71.20
2023-04-22T18:38:12.684Z,71.60
2023-04-22T18:40:41.510Z,71.50
2023-04-22T18:43:09.957Z,69.00
2023-04-22T18:45:37.502Z,69.10
2023-04-22T18:48:05.935Z,70.20
2023-04-22T18:50:33.514Z,71.40
2023-04-22T18:53:01.177Z,72.10
2023-04-22T18:55:28.827Z,68.80
2023-04-22T18:57:56.643Z,69.80
2023-04-22T19:00:24.239Z,70.40
2023-04-22T19:02:51.867Z,70.40
2023-04-22T19:05:19.550Z,70.40
2023-04-22T19:07:47.102Z,69.70
2023-04-22T19:10:14.664Z,71.10
2023-04-22T19:12:42.279Z,71.00
2023-04-22T19:15:10.131Z,70.90
2023-04-22T19:17:38.334Z,71.20
2023-04-22T19:20:06.350Z,71.30
2023-04-22T19:22:34.011Z,71.20
2023-04-22T19:25:06.197Z,72.50
2023-04-22T19:27:34.918Z,71.80
2023-04-22T19:30:03.297Z,72.40
2023-04-22T19:32:31.413Z,72.00
2023-04-22T19:34:59.431Z,72.30
2023-04-22T19:37:27.733Z,71.60
2023-04-22T19:39:55.370Z,71.90
2023-04-22T19:42:22.908Z,70.60
2023-04-22T19:44:51.176Z,71.50
2023-04-22T19:47:18.838Z,70.40
2023-04-22T19:49:46.627Z,70.70
2023-04-22T19:52:15.855Z,70.90
2023-04-22T19:54:45.933Z,71.10
2023-04-22T19:57:16.280Z,70.80
2023-04-22T19:59:44.090Z,71.20
2023-04-22T20:02:11.823Z,72.90
2023-04-22T20:04:39.656Z,72.30
2023-04-22T20:07:07.487Z,71.90
2023-04-22T20:09:35.450Z,71.60
2023-04-22T20:12:03.657Z,71.00
2023-04-22T20:14:31.852Z,69.20
2023-04-22T20:17:00.330Z,69.20
2023-04-22T20:19:28.699Z,69.40
2023-04-22T20:22:00.451Z,70.30
2023-04-22T20:24:28.752Z,70.20
2023-04-22T20:26:57.505Z,70.30
2023-04-22T20:29:25.188Z,70.80
2023-04-22T20:31:52.948Z,71.00
2023-04-22T20:34:21.386Z,72.20
2023-04-22T20:36:50.888Z,70.80
2023-04-22T20:39:18.469Z,69.90
2023-04-22T20:41:46.201Z,69.00
2023-04-22T20:44:14.408Z,69.00
2023-04-22T20:46:41.986Z,68.80
2023-04-22T20:49:09.730Z,68.30
2023-04-22T20:51:37.336Z,69.10
2023-04-22T20:54:09.766Z,71.10
2023-04-22T20:56:45.587Z,71.00
2023-04-22T20:59:13.118Z,70.20
2023-04-22T21:01:43.911Z,71.30
2023-04-22T21:04:12.146Z,71.30
2023-04-22T21:06:41.574Z,71.70
2023-04-22T21:09:12.212Z,72.40
2023-04-22T21:11:42.069Z,73.30
2023-04-22T21:14:10.545Z,72.70
2023-04-22T21:16:40.500Z,72.50
2023-04-22T21:19:08.478Z,73.50
2023-04-22T21:21:36.989Z,72.10
2023-04-22T21:24:07.428Z,70.80
2023-04-22T21:26:36.485Z,72.40
2023-04-22T21:29:04.187Z,71.00
2023-04-22T21:31:31.811Z,72.20
2023-04-22T21:34:01.638Z,73.30
2023-04-22T21:36:29.991Z,71.80
2023-04-22T21:38:58.743Z,71.70
2023-04-22T21:41:26.603Z,73.60
2023-04-22T21:43:54.129Z,73.20
2023-04-22T21:46:22.816Z,74.40
2023-04-22T21:48:50.466Z,74.60
2023-04-22T21:51:18.049Z,73.30
2023-04-22T21:53:46.039Z,71.00
2023-04-22T21:56:13.711Z,71.50
2023-04-22T21:58:41.461Z,72.30
2023-04-22T22:01:09.132Z,73.10
2023-04-22T22:03:37.142Z,73.90
2023-04-22T22:06:05.168Z,73.20
2023-04-22T22:08:32.934Z,72.90
2023-04-22T22:11:00.621Z,72.80
2023-04-22T22:13:28.155Z,72.20
2023-04-22T22:15:57.630Z,71.60
2023-04-22T22:18:26.292Z,72.20
2023-04-22T22:20:54.228Z,71.40
2023-04-22T22:23:21.925Z,73.30
2023-04-22T22:25:49.893Z,73.60
2023-04-22T22:28:17.837Z,73.00
2023-04-22T22:30:45.902Z,73.30
2023-04-22T22:33:13.464Z,73.70
2023-04-22T22:35:43.124Z,73.40
2023-04-22T22:38:11.988Z,73.50
2023-04-22T22:40:40.289Z,72.10
2023-04-22T22:43:08.090Z,73.90
2023-04-22T22:45:36.848Z,76.40
2023-04-22T22:48:05.336Z,75.40
2023-04-22T22:50:33.180Z,75.00
2023-04-22T22:53:01.586Z,74.50
2023-04-22T22:55:29.146Z,74.60
2023-04-22T22:57:56.840Z,73.80
2023-04-22T23:00:24.430Z,72.60
2023-04-22T23:02:54.381Z,75.30
2023-04-22T23:05:22.568Z,75.20
2023-04-22T23:07:50.132Z,75.00
2023-04-22T23:10:17.688Z,74.00
2023-04-22T23:12:45.384Z,74.10
2023-04-22T23:15:12.909Z,73.70
2023-04-22T23:17:40.455Z,74.70
2023-04-22T23:20:10.195Z,74.90
2023-04-22T23:22:40.892Z,74.40
2023-04-22T23:25:09.382Z,74.90
2023-04-22T23:27:37.148Z,73.60
2023-04-22T23:30:05.068Z,72.00
2023-04-22T23:32:33.707Z,72.90
2023-04-22T23:35:02.099Z,73.40
2023-04-22T23:37:29.914Z,74.60
2023-04-22T23:39:57.858Z,74.30
2023-04-22T23:42:25.461Z,73.50
2023-04-22T23:44:53.026Z,72.00
2023-04-22T23:47:20.712Z,72.50
2023-04-22T23:49:48.405Z,72.30
2023-04-22T23:52:15.941Z,73.20
2023-04-22T23:54:46.999Z,73.20
2023-04-22T23:57:14.603Z,73.20
2023-04-22T23:59:42.250Z,72.90
